createdAt,value
2019-06-20T00:02:31.105Z,1.60
2019-06-20T00:05:17.200Z,1.40
2019-06-20T00:08:03.386Z,1.60
2019-06-20T00:10:49.784Z,1.60
2019-06-20T00:13:36.005Z,2.10
2019-06-20T00:16:22.182Z,1.57
2019-06-20T00:19:08.633Z,1.67
2019-06-20T00:21:54.890Z,1.80
2019-06-20T00:24:41.262Z,2.10
2019-06-20T00:27:27.618Z,1.80
2019-06-20T00:30:15.093Z,1.67
2019-06-20T00:33:01.342Z,1.80
2019-06-20T00:35:47.591Z,1.90
2019-06-20T00:38:34.822Z,1.80
2019-06-20T00:41:21.061Z,1.80
2019-06-20T00:44:07.228Z,2.00
2019-06-20T00:46:53.465Z,2.10
2019-06-20T00:49:39.933Z,2.20
2019-06-20T00:52:26.084Z,2.30
2019-06-20T00:55:12.466Z,2.37
2019-06-20T00:57:59.098Z,1.83
2019-06-20T01:00:45.214Z,1.90
2019-06-20T01:03:31.413Z,1.80
2019-06-20T01:06:18.153Z,1.77
2019-06-20T01:09:06.225Z,2.20
2019-06-20T01:11:52.846Z,1.80
2019-06-20T01:14:39.216Z,1.90
2019-06-20T01:17:25.497Z,1.50
2019-06-20T01:20:12.184Z,1.83
2019-06-20T01:22:58.623Z,2.10
2019-06-20T01:25:44.912Z,2.00
2019-06-20T01:28:31.208Z,2.00
2019-06-20T01:31:17.600Z,1.90
2019-06-20T01:34:03.840Z,1.80
2019-06-20T01:36:50.099Z,1.83
2019-06-20T01:39:36.370Z,2.37
2019-06-20T01:42:22.631Z,2.43
2019-06-20T01:45:08.938Z,2.10
2019-06-20T01:47:55.259Z,2.20
2019-06-20T01:50:41.418Z,1.87
2019-06-20T01:53:27.822Z,1.80
2019-06-20T01:56:13.881Z,1.93
2019-06-20T01:59:00.269Z,2.00
2019-06-20T02:01:47.670Z,1.73
2019-06-20T02:04:33.866Z,1.90
2019-06-20T02:07:20.241Z,1.87
2019-06-20T02:10:06.840Z,1.70
2019-06-20T02:12:52.872Z,1.80
2019-06-20T02:15:39.048Z,1.73
2019-06-20T02:18:25.501Z,1.83
2019-06-20T02:21:11.549Z,1.83
2019-06-20T02:23:57.753Z,2.13
2019-06-20T02:26:43.894Z,2.13
2019-06-20T02:29:30.208Z,1.83
2019-06-20T02:32:16.510Z,2.20
2019-06-20T02:35:02.682Z,2.23
2019-06-20T02:37:48.967Z,1.87
2019-06-20T02:40:35.730Z,2.23
2019-06-20T02:43:22.030Z,1.90
2019-06-20T02:46:08.382Z,1.97
2019-06-20T02:48:54.503Z,2.13
2019-06-20T02:51:40.594Z,1.77
2019-06-20T02:54:26.828Z,2.03
2019-06-20T02:57:13.193Z,1.83
2019-06-20T02:59:59.369Z,1.80
2019-06-20T03:02:45.645Z,1.90
2019-06-20T03:05:32.118Z,1.60
2019-06-20T03:08:20.081Z,2.00
2019-06-20T03:11:06.345Z,1.90
2019-06-20T03:13:52.872Z,1.87
2019-06-20T03:16:40.150Z,2.23
2019-06-20T03:19:26.375Z,2.40
2019-06-20T03:22:12.753Z,2.20
2019-06-20T03:25:00.281Z,2.47
2019-06-20T03:27:46.605Z,1.70
2019-06-20T03:30:33.006Z,2.30
2019-06-20T03:33:19.197Z,2.30
2019-06-20T03:36:05.405Z,1.87
2019-06-20T03:38:51.793Z,2.07
2019-06-20T03:41:38.144Z,2.10
2019-06-20T03:44:24.192Z,2.10
2019-06-20T03:47:10.311Z,1.90
2019-06-20T03:49:56.618Z,1.97
2019-06-20T03:52:43.929Z,2.20
2019-06-20T03:55:31.359Z,2.20
2019-06-20T03:58:17.346Z,1.83
2019-06-20T04:01:03.781Z,1.80
2019-06-20T04:03:49.913Z,1.70
2019-06-20T04:06:36.188Z,1.90
2019-06-20T04:09:23.531Z,2.23
2019-06-20T04:12:09.724Z,1.77
2019-06-20T04:14:55.993Z,1.77
2019-06-20T04:17:42.410Z,1.80
2019-06-20T04:20:28.685Z,2.23
2019-06-20T04:23:14.981Z,2.00
2019-06-20T04:26:01.485Z,2.43
2019-06-20T04:28:47.708Z,2.30
2019-06-20T04:31:33.896Z,2.10
2019-06-20T04:34:20.597Z,2.10
2019-06-20T04:37:06.802Z,2.63
2019-06-20T04:39:53.175Z,2.10
2019-06-20T04:42:39.386Z,2.40
2019-06-20T04:45:48.907Z,2.30
2019-06-20T04:48:34.989Z,2.33
2019-06-20T04:51:21.142Z,2.80
2019-06-20T04:54:07.517Z,2.30
2019-06-20T04:56:53.772Z,2.00
2019-06-20T04:59:40.045Z,2.50
2019-06-20T05:02:33.202Z,2.40
2019-06-20T05:05:19.359Z,2.40
2019-06-20T05:08:05.569Z,2.17
2019-06-20T05:10:51.792Z,2.33
2019-06-20T05:13:38.114Z,2.30
2019-06-20T05:16:24.325Z,2.37
2019-06-20T05:19:10.741Z,2.40
2019-06-20T05:21:56.914Z,2.30
2019-06-20T05:24:44.133Z,2.40
2019-06-20T05:27:30.395Z,2.13
2019-06-20T05:30:17.049Z,2.30
2019-06-20T05:33:03.582Z,2.43
2019-06-20T05:35:50.178Z,2.40
2019-06-20T05:38:36.249Z,2.67
2019-06-20T05:41:22.596Z,2.73
2019-06-20T05:44:09.025Z,2.90
2019-06-20T05:47:11.482Z,2.20
2019-06-20T05:49:43.532Z,2.60
2019-06-20T05:53:03.869Z,2.40
2019-06-20T05:55:50.485Z,2.40
2019-06-20T05:58:36.785Z,2.30
2019-06-20T06:01:23.068Z,2.50
2019-06-20T06:04:09.301Z,2.50
2019-06-20T06:06:55.525Z,2.37
2019-06-20T06:09:41.823Z,2.50
2019-06-20T06:12:28.137Z,2.47
2019-06-20T06:15:14.587Z,2.53
2019-06-20T06:18:00.743Z,2.30
2019-06-20T06:20:47.020Z,2.37
2019-06-20T06:23:33.283Z,2.77
2019-06-20T06:26:20.067Z,2.50
2019-06-20T06:29:06.585Z,2.23
2019-06-20T06:31:52.981Z,2.50
2019-06-20T06:34:39.337Z,2.37
2019-06-20T06:37:25.692Z,2.27
2019-06-20T06:40:12.663Z,2.30
2019-06-20T06:42:58.636Z,2.50
2019-06-20T06:45:44.812Z,2.13
2019-06-20T06:48:31.102Z,2.13
2019-06-20T06:51:17.385Z,2.50
2019-06-20T06:54:03.838Z,2.60
2019-06-20T06:56:50.130Z,2.60
2019-06-20T06:59:36.408Z,2.40
2019-06-20T07:02:22.550Z,2.33
2019-06-20T07:05:08.985Z,2.50
2019-06-20T07:07:55.121Z,2.43
2019-06-20T07:10:41.461Z,2.13
2019-06-20T07:13:27.834Z,2.50
2019-06-20T07:16:14.089Z,2.17
2019-06-20T07:19:00.305Z,2.40
2019-06-20T07:21:46.867Z,2.30
2019-06-20T07:24:33.021Z,2.20
2019-06-20T07:27:19.500Z,2.17
2019-06-20T07:30:07.855Z,2.10
2019-06-20T07:32:54.007Z,2.33
2019-06-20T07:35:41.971Z,2.40
2019-06-20T07:38:29.418Z,2.50
2019-06-20T07:41:15.710Z,2.40
2019-06-20T07:44:02.017Z,2.37
2019-06-20T07:46:48.378Z,2.50
2019-06-20T07:49:34.707Z,2.37
2019-06-20T07:52:21.264Z,2.50
2019-06-20T07:55:08.462Z,2.17
2019-06-20T07:57:54.629Z,2.20
2019-06-20T08:00:40.980Z,2.10
2019-06-20T08:03:27.535Z,2.27
2019-06-20T08:06:13.922Z,2.40
2019-06-20T08:09:00.253Z,2.37
2019-06-20T08:11:51.635Z,2.13
2019-06-20T08:14:40.061Z,2.30
2019-06-20T08:17:35.397Z,2.10
2019-06-20T08:20:16.019Z,2.40
2019-06-20T08:23:01.940Z,1.90
2019-06-20T08:25:47.782Z,1.87
2019-06-20T08:28:33.824Z,1.90
2019-06-20T08:31:19.901Z,1.70
2019-06-20T08:34:06.548Z,1.80
2019-06-20T08:36:52.633Z,1.50
2019-06-20T08:39:38.758Z,1.70
2019-06-20T08:42:24.907Z,2.20
2019-06-20T08:45:11.354Z,1.90
2019-06-20T08:47:58.315Z,1.80
2019-06-20T08:50:44.526Z,1.80
2019-06-20T08:53:30.548Z,1.93
2019-06-20T08:56:17.861Z,1.80
2019-06-20T08:59:04.869Z,1.57
2019-06-20T09:01:51.567Z,1.90
2019-06-20T09:04:37.752Z,2.00
2019-06-20T09:07:24.920Z,2.10
2019-06-20T09:10:12.459Z,1.90
2019-06-20T09:13:01.326Z,1.63
2019-06-20T09:15:47.574Z,1.93
2019-06-20T09:18:33.651Z,1.90
2019-06-20T09:21:20.094Z,1.83
2019-06-20T09:24:36.533Z,1.50
2019-06-20T09:27:22.920Z,1.70
2019-06-20T09:30:09.624Z,1.60
2019-06-20T09:32:55.969Z,2.00
2019-06-20T09:35:42.133Z,1.70
2019-06-20T09:38:28.302Z,1.80
2019-06-20T09:41:14.533Z,1.80
2019-06-20T09:44:03.085Z,1.60
2019-06-20T09:46:50.798Z,1.53
2019-06-20T09:49:37.907Z,1.90
2019-06-20T09:52:24.103Z,1.80
2019-06-20T09:55:12.118Z,1.80
2019-06-20T09:57:58.347Z,1.73
2019-06-20T10:00:44.489Z,2.20
2019-06-20T10:03:30.909Z,2.63
2019-06-20T10:05:58.574Z,2.30
2019-06-20T10:08:26.297Z,2.60
2019-06-20T10:10:54.206Z,2.27
2019-06-20T10:13:22.106Z,2.50
2019-06-20T10:15:49.806Z,2.30
2019-06-20T10:18:17.537Z,2.10
2019-06-20T10:20:46.101Z,1.90
2019-06-20T10:23:14.870Z,1.83
2019-06-20T10:25:42.624Z,1.87
2019-06-20T10:28:10.270Z,1.60
2019-06-20T10:30:37.946Z,1.70
2019-06-20T10:33:05.635Z,1.53
2019-06-20T10:35:33.538Z,1.90
2019-06-20T10:38:01.300Z,1.97
2019-06-20T10:40:28.945Z,1.40
2019-06-20T10:42:56.999Z,1.77
2019-06-20T10:45:25.334Z,1.67
2019-06-20T10:47:53.659Z,1.80
2019-06-20T10:50:22.615Z,1.90
2019-06-20T10:52:51.701Z,1.50
2019-06-20T10:55:19.731Z,1.90
2019-06-20T10:57:49.628Z,1.73
2019-06-20T11:00:30.271Z,1.70
2019-06-20T11:02:47.516Z,1.87
2019-06-20T11:05:17.113Z,1.80
2019-06-20T11:07:45.592Z,2.03
2019-06-20T11:10:14.014Z,1.77
2019-06-20T11:12:47.945Z,1.97
2019-06-20T11:15:11.850Z,2.00
2019-06-20T11:17:40.331Z,1.90
2019-06-20T11:20:09.235Z,2.37
2019-06-20T11:22:38.432Z,1.90
2019-06-20T11:25:07.121Z,2.20
2019-06-20T11:27:37.083Z,2.30
2019-06-20T11:30:07.449Z,1.80
2019-06-20T11:32:36.623Z,2.10
2019-06-20T11:35:05.064Z,2.10
2019-06-20T11:37:33.017Z,2.27
2019-06-20T11:40:01.061Z,2.30
2019-06-20T11:42:28.728Z,2.00
2019-06-20T11:44:56.429Z,2.30
2019-06-20T11:47:24.132Z,2.17
2019-06-20T11:49:51.790Z,2.00
2019-06-20T11:52:19.538Z,1.60
2019-06-20T11:54:47.316Z,1.93
2019-06-20T11:57:14.996Z,1.57
2019-06-20T11:59:42.650Z,1.70
2019-06-20T12:02:10.334Z,1.80
2019-06-20T12:04:38.216Z,1.73
2019-06-20T12:07:07.409Z,1.47
2019-06-20T12:09:36.592Z,1.50
2019-06-20T12:12:04.402Z,1.50
2019-06-20T12:14:32.050Z,1.10
2019-06-20T12:16:59.763Z,1.30
2019-06-20T12:19:27.439Z,1.00
2019-06-20T12:21:55.211Z,1.17
2019-06-20T12:24:23.094Z,0.93
2019-06-20T12:26:50.893Z,1.00
2019-06-20T12:29:18.632Z,1.40
2019-06-20T12:31:46.417Z,1.50
2019-06-20T12:34:14.114Z,1.30
2019-06-20T12:36:42.531Z,1.10
2019-06-20T12:39:10.327Z,1.40
2019-06-20T12:41:38.714Z,1.43
2019-06-20T12:44:07.392Z,1.30
2019-06-20T12:46:35.106Z,1.20
2019-06-20T12:49:02.730Z,1.20
2019-06-20T12:51:30.674Z,1.07
2019-06-20T12:53:58.623Z,1.00
2019-06-20T12:56:26.340Z,1.10
2019-06-20T12:58:53.974Z,1.20
2019-06-20T13:01:34.452Z,1.27
2019-06-20T13:03:51.255Z,1.20
2019-06-20T13:06:18.921Z,1.20
2019-06-20T13:08:47.342Z,1.33
2019-06-20T13:11:15.198Z,1.20
2019-06-20T13:13:44.443Z,1.20
2019-06-20T13:16:12.203Z,1.20
2019-06-20T13:18:41.080Z,1.10
2019-06-20T13:21:09.369Z,1.40
2019-06-20T13:23:37.053Z,1.50
2019-06-20T13:26:04.851Z,1.33
2019-06-20T13:28:33.699Z,1.30
2019-06-20T13:31:01.343Z,1.20
2019-06-20T13:33:28.986Z,1.47
2019-06-20T13:35:59.016Z,1.30
2019-06-20T13:38:26.758Z,1.23
2019-06-20T13:40:54.561Z,1.40
2019-06-20T13:43:22.446Z,1.30
2019-06-20T13:45:50.227Z,1.40
2019-06-20T13:48:17.914Z,1.50
2019-06-20T13:50:45.580Z,1.30
2019-06-20T13:53:13.322Z,1.40
2019-06-20T13:55:42.393Z,1.57
2019-06-20T13:58:10.707Z,1.40
2019-06-20T14:00:38.409Z,1.47
2019-06-20T14:03:06.182Z,1.47
2019-06-20T14:05:33.802Z,1.40
2019-06-20T14:08:01.466Z,1.40
2019-06-20T14:10:29.181Z,1.67
2019-06-20T14:12:57.045Z,1.57
2019-06-20T14:15:24.838Z,1.53
2019-06-20T14:17:53.823Z,1.50
2019-06-20T14:20:21.786Z,1.40
2019-06-20T14:22:49.799Z,1.40
2019-06-20T14:25:17.897Z,1.43
2019-06-20T14:27:46.040Z,1.60
2019-06-20T14:30:14.231Z,1.50
2019-06-20T14:32:43.248Z,1.30
2019-06-20T14:35:11.727Z,1.50
2019-06-20T14:37:39.402Z,1.60
2019-06-20T14:40:07.878Z,1.50
2019-06-20T14:42:35.578Z,1.40
2019-06-20T14:45:03.816Z,1.40
2019-06-20T14:47:32.592Z,1.30
2019-06-20T14:50:00.550Z,1.60
2019-06-20T14:52:28.244Z,1.50
2019-06-20T14:54:55.974Z,1.40
2019-06-20T14:57:23.815Z,1.67
2019-06-20T14:59:53.045Z,1.50
2019-06-20T15:02:37.222Z,1.40
2019-06-20T15:04:54.331Z,1.40
2019-06-20T15:07:23.317Z,1.20
2019-06-20T15:09:51.428Z,1.60
2019-06-20T15:12:19.697Z,1.43
2019-06-20T15:14:48.333Z,1.30
2019-06-20T15:17:17.367Z,1.13
2019-06-20T15:19:46.667Z,1.57
2019-06-20T15:22:16.311Z,1.17
2019-06-20T15:24:46.714Z,1.30
2019-06-20T15:27:14.150Z,1.43
2019-06-20T15:29:42.036Z,1.30
2019-06-20T15:32:09.956Z,1.27
2019-06-20T15:34:37.700Z,1.13
2019-06-20T15:37:06.430Z,1.20
2019-06-20T15:39:34.436Z,1.20
2019-06-20T15:42:04.076Z,1.23
2019-06-20T15:44:31.776Z,1.50
2019-06-20T15:46:59.485Z,1.17
2019-06-20T15:49:27.189Z,1.27
2019-06-20T15:51:58.799Z,1.13
2019-06-20T15:54:24.688Z,1.20
2019-06-20T15:56:52.953Z,1.10
2019-06-20T15:59:20.785Z,1.30
2019-06-20T16:01:48.533Z,1.10
2019-06-20T16:04:17.413Z,1.23
2019-06-20T16:06:45.140Z,1.47
2019-06-20T16:09:15.169Z,1.20
2019-06-20T16:11:43.067Z,1.23
2019-06-20T16:14:12.667Z,1.23
2019-06-20T16:16:40.915Z,1.13
2019-06-20T16:19:10.014Z,1.30
2019-06-20T16:21:37.832Z,1.30
2019-06-20T16:24:05.518Z,1.27
2019-06-20T16:26:34.579Z,1.20
2019-06-20T16:29:02.340Z,1.10
2019-06-20T16:31:30.553Z,1.00
2019-06-20T16:33:58.379Z,1.20
2019-06-20T16:36:26.390Z,1.10
2019-06-20T16:38:54.242Z,1.47
2019-06-20T16:41:22.037Z,1.40
2019-06-20T16:43:49.731Z,1.30
2019-06-20T16:46:17.603Z,1.00
2019-06-20T16:48:45.680Z,1.20
2019-06-20T16:51:13.573Z,1.17
2019-06-20T16:53:41.371Z,1.23
2019-06-20T16:56:09.066Z,1.50
2019-06-20T16:58:38.650Z,1.37
2019-06-20T17:01:08.402Z,1.60
2019-06-20T17:03:54.645Z,1.30
2019-06-20T17:09:11.748Z,1.60
2019-06-20T17:11:40.223Z,1.33
2019-06-20T17:14:09.914Z,1.40
2019-06-20T17:16:39.590Z,1.50
2019-06-20T17:19:10.302Z,1.47
2019-06-20T17:21:57.960Z,1.40
2019-06-20T17:24:26.306Z,1.50
2019-06-20T17:26:54.366Z,1.30
2019-06-20T17:29:24.301Z,1.30
2019-06-20T17:31:57.348Z,1.20
2019-06-20T17:34:26.270Z,1.20
2019-06-20T17:36:54.473Z,1.50
2019-06-20T17:39:27.452Z,1.50
2019-06-20T17:42:13.559Z,1.40
2019-06-20T17:44:43.359Z,1.60
2019-06-20T17:47:13.889Z,1.30
2019-06-20T17:49:43.497Z,1.20
2019-06-20T17:52:13.279Z,1.20
2019-06-20T17:54:41.382Z,1.47
2019-06-20T17:57:09.609Z,1.27
2019-06-20T17:59:37.412Z,1.40
2019-06-20T18:02:06.996Z,1.20
2019-06-20T18:04:35.069Z,1.10
2019-06-20T18:07:03.198Z,1.10
2019-06-20T18:09:31.099Z,1.20
2019-06-20T18:11:59.006Z,1.17
2019-06-20T18:14:29.330Z,1.30
2019-06-20T18:16:57.332Z,0.90
2019-06-20T18:19:27.197Z,1.10
2019-06-20T18:21:55.009Z,1.00
2019-06-20T18:24:22.984Z,1.00
2019-06-20T18:27:04.843Z,0.90
2019-06-20T18:29:35.465Z,1.20
2019-06-20T18:32:03.193Z,1.00
2019-06-20T18:34:30.933Z,0.90
2019-06-20T18:36:58.715Z,1.30
2019-06-20T18:39:26.863Z,1.20
2019-06-20T18:41:55.158Z,1.10
2019-06-20T18:44:24.011Z,1.10
2019-06-20T18:46:56.401Z,0.90
2019-06-20T18:49:24.887Z,0.90
2019-06-20T18:51:54.327Z,1.00
2019-06-20T18:54:22.159Z,1.30
2019-06-20T18:56:51.818Z,1.10
2019-06-20T18:59:21.389Z,1.10
2019-06-20T19:01:50.016Z,0.90
2019-06-20T19:04:18.225Z,0.93
2019-06-20T19:06:47.876Z,1.00
2019-06-20T19:09:17.456Z,1.10
2019-06-20T19:11:47.440Z,1.10
2019-06-20T19:14:17.151Z,1.07
2019-06-20T19:16:47.007Z,1.10
2019-06-20T19:19:14.867Z,1.17
2019-06-20T19:21:44.760Z,0.93
2019-06-20T19:24:12.860Z,1.03
2019-06-20T19:26:41.227Z,1.10
2019-06-20T19:29:09.196Z,1.13
2019-06-20T19:31:38.769Z,1.10
2019-06-20T19:34:06.899Z,1.10
2019-06-20T19:36:34.650Z,1.07
2019-06-20T19:39:03.211Z,1.00
2019-06-20T19:41:32.995Z,0.93
2019-06-20T19:44:00.761Z,1.07
2019-06-20T19:46:28.681Z,0.80
2019-06-20T19:48:56.647Z,1.10
2019-06-20T19:51:24.617Z,1.00
2019-06-20T19:53:53.580Z,1.00
2019-06-20T19:56:21.533Z,0.87
2019-06-20T19:58:50.391Z,0.93
2019-06-20T20:01:18.429Z,0.97
2019-06-20T20:03:46.529Z,1.17
2019-06-20T20:06:16.331Z,1.10
2019-06-20T20:08:45.685Z,0.97
2019-06-20T20:11:14.231Z,1.00
2019-06-20T20:13:42.361Z,1.10
2019-06-20T20:16:10.505Z,1.20
2019-06-20T20:18:38.632Z,1.00
2019-06-20T20:21:06.875Z,1.00
2019-06-20T20:23:35.129Z,1.10
2019-06-20T20:26:08.456Z,1.03
2019-06-20T20:28:36.325Z,1.10
2019-06-20T20:31:22.364Z,1.30
2019-06-20T20:33:50.003Z,1.00
2019-06-20T20:36:24.816Z,0.90
2019-06-20T20:38:47.432Z,1.00
2019-06-20T20:41:15.154Z,1.00
2019-06-20T20:43:42.838Z,1.00
2019-06-20T20:46:10.531Z,1.20
2019-06-20T20:48:38.204Z,0.90
2019-06-20T20:51:05.886Z,1.20
2019-06-20T20:53:33.677Z,1.10
2019-06-20T20:56:02.517Z,0.87
2019-06-20T20:58:30.361Z,0.90
2019-06-20T21:01:24.017Z,1.00
2019-06-20T21:03:52.869Z,1.07
2019-06-20T21:06:20.584Z,1.13
2019-06-20T21:08:48.542Z,1.17
2019-06-20T21:11:16.264Z,0.80
2019-06-20T21:13:43.987Z,1.10
2019-06-20T21:16:12.614Z,0.90
2019-06-20T21:18:40.333Z,1.13
2019-06-20T21:21:08.829Z,1.27
2019-06-20T21:23:36.785Z,1.20
2019-06-20T21:26:04.988Z,1.10
2019-06-20T21:28:32.805Z,1.13
2019-06-20T21:31:00.601Z,1.10
2019-06-20T21:33:28.783Z,1.27
2019-06-20T21:36:07.866Z,1.10
2019-06-20T21:38:26.778Z,0.90
2019-06-20T21:40:54.735Z,1.20
2019-06-20T21:43:22.519Z,1.10
2019-06-20T21:45:52.085Z,1.10
2019-06-20T21:48:21.734Z,1.10
2019-06-20T21:50:51.291Z,1.00
2019-06-20T21:53:19.018Z,1.20
2019-06-20T21:55:46.741Z,1.00
2019-06-20T21:58:15.534Z,1.27
2019-06-20T22:00:47.960Z,1.20
2019-06-20T22:03:17.485Z,1.10
2019-06-20T22:05:45.111Z,1.23
2019-06-20T22:08:12.834Z,1.17
2019-06-20T22:10:40.546Z,1.00
2019-06-20T22:13:08.282Z,1.20
2019-06-20T22:15:36.272Z,1.37
2019-06-20T22:18:04.117Z,1.30
2019-06-20T22:20:31.762Z,1.17
2019-06-20T22:22:59.427Z,1.30
2019-06-20T22:25:27.303Z,1.10
2019-06-20T22:27:54.982Z,1.30
2019-06-20T22:30:42.228Z,1.10
2019-06-20T22:33:10.250Z,1.40
2019-06-20T22:35:38.298Z,1.20
2019-06-20T22:38:06.338Z,1.50
2019-06-20T22:40:34.562Z,1.30
2019-06-20T22:43:02.324Z,1.20
2019-06-20T22:45:30.061Z,1.40
2019-06-20T22:47:57.862Z,1.40
2019-06-20T22:50:26.249Z,1.27
2019-06-20T22:52:54.109Z,1.30
2019-06-20T22:55:21.939Z,1.20
2019-06-20T22:57:51.615Z,1.30
2019-06-20T23:00:21.216Z,1.50
2019-06-20T23:02:50.829Z,1.30
2019-06-20T23:05:20.408Z,1.13
2019-06-20T23:07:48.033Z,1.30
2019-06-20T23:10:15.716Z,1.50
2019-06-20T23:12:43.420Z,1.40
2019-06-20T23:15:11.437Z,1.37
2019-06-20T23:17:39.232Z,1.37
2019-06-20T23:20:09.831Z,1.20
2019-06-20T23:22:37.614Z,1.57
2019-06-20T23:25:05.407Z,1.50
2019-06-20T23:27:33.100Z,1.40
2019-06-20T23:30:00.980Z,1.57
2019-06-20T23:32:28.645Z,1.40
2019-06-20T23:34:56.505Z,1.50
2019-06-20T23:37:24.214Z,1.43
2019-06-20T23:39:51.857Z,1.40
2019-06-20T23:42:19.498Z,1.40
2019-06-20T23:44:47.202Z,1.80
2019-06-20T23:47:14.826Z,1.23
2019-06-20T23:49:42.498Z,1.43
2019-06-20T23:52:14.945Z,1.47
2019-06-20T23:54:42.750Z,1.57
2019-06-20T23:57:10.492Z,1.33
2019-06-20T23:59:38.433Z,1.43
